Sunny Clover — H3SY — position and weather

sailwx.info

Track history (hours):
 
Tides and Currents Weather Stations Pressure Air Temp Water Temp Dewpoint Dewpoint Depression Visibility Wind Speed Wind Dir Waves Ship Positions

Sunny Clover

Last reported at 2016-Aug-29 23:27 UTC. Time now 2016-Aug-30 03:17 UTC.
Position N 25°01' E 120°06'.

Length 137 m; draft 6.7 m.

Type: Cargo ship. MMSI: 374431000.

Date/timePositionNaut miles runAvg speedWind from/ knotsBaromVisibWave heightAir tempDewpointWater temp
2016-Aug-29 23:27N 25°01' E 120°06'5516.9
2016-Aug-29 20:12N 24°28' E 119°18'1116.9
2016-Aug-29 19:32N 24°21' E 119°08'3416.3
2016-Aug-29 17:28N 24°02' E 118°37'1616.0
2016-Aug-29 16:29N 23°54' E 118°23'10516.5
2016-Aug-29 10:05N 22°55' E 116°47'1216.0
2016-Aug-29 09:21N 22°50' E 116°36'12615.3
2016-Aug-29 01:06N 22°07' E 114°27'2212.8
2016-Aug-28 23:21N 22°18' E 114°06'1010.7
2016-Aug-28 22:22N 22°21' E 113°55'6 6.8
2016-Aug-28 21:32N 22°27' E 113°53'1 1.2
2016-Aug-28 20:32N 22°28' E 113°54'0 0.0
2016-Aug-28 19:32N 22°28' E 113°54'0 0.0
2016-Aug-28 18:20N 22°28' E 113°54'0 0.0
2016-Aug-28 17:32N 22°28' E 113°54'0 0.0
2016-Aug-28 16:32N 22°28' E 113°54'0 0.0
2016-Aug-28 15:32N 22°28' E 113°54'0 0.0
2016-Aug-28 14:26N 22°28' E 113°54'0 0.0
2016-Aug-28 13:32N 22°28' E 113°54'0 0.0
2016-Aug-28 12:32N 22°28' E 113°54'0 0.0
2016-Aug-28 11:32N 22°28' E 113°54'1 1.2
2016-Aug-28 10:33N 22°27' E 113°54'5 4.7
2016-Aug-28 09:31N 22°22' E 113°55'1010.6
2016-Aug-28 08:33N 22°19' E 114°05'24212.1
2016-Aug-27 12:32N 20°12' E 110°24'1111.4
2016-Aug-27 11:33N 20°09' E 110°13'10 0.2
2016-Aug-25 11:03N 20°09' E 110°02'612.6
2016-Aug-25 10:32N 20°10' E 110°08'1111.0
2016-Aug-25 09:33N 20°12' E 110°20'1210.4
2016-Aug-25 08:23N 20°14' E 110°32'23414.5
2016-Aug-24 16:17N 22°18' E 114°06'2 0.3
2016-Aug-24 08:34N 22°19' E 114°07'15 6.8
2016-Aug-24 06:21N 22°08' E 114°18'28614.9
2016-Aug-23 11:11N 24°14' E 118°57'1015.1
2016-Aug-23 10:33N 24°20' E 119°05'1515.2
2016-Aug-23 09:33N 24°28' E 119°19'1916.4
2016-Aug-23 08:23N 24°39' E 119°37'2117.4
2016-Aug-23 07:10N 24°51' E 119°56'  
Track history (hours):
 
Tides and Currents Weather Stations Pressure Air Temp Water Temp Dewpoint Dewpoint Depression Visibility Wind Speed Wind Dir Waves Ship Positions

Sunny Clover

Last reported at 2016-Aug-29 23:27 UTC. Time now 2016-Aug-30 03:17 UTC.
Position N 25°01' E 120°06'.

Length 137 m; draft 6.7 m.

Type: Cargo ship. MMSI: 374431000.

Date/timePositionNaut miles runAvg speedWind from/ knotsBaromVisibWave heightAir tempDewpointWater temp
2016-Aug-29 23:27N 25°01' E 120°06'5516.9
2016-Aug-29 20:12N 24°28' E 119°18'1116.9
2016-Aug-29 19:32N 24°21' E 119°08'3416.3
2016-Aug-29 17:28N 24°02' E 118°37'1616.0
2016-Aug-29 16:29N 23°54' E 118°23'10516.5
2016-Aug-29 10:05N 22°55' E 116°47'1216.0
2016-Aug-29 09:21N 22°50' E 116°36'12615.3
2016-Aug-29 01:06N 22°07' E 114°27'2212.8
2016-Aug-28 23:21N 22°18' E 114°06'1010.7
2016-Aug-28 22:22N 22°21' E 113°55'6 6.8
2016-Aug-28 21:32N 22°27' E 113°53'1 1.2
2016-Aug-28 20:32N 22°28' E 113°54'0 0.0
2016-Aug-28 19:32N 22°28' E 113°54'0 0.0
2016-Aug-28 18:20N 22°28' E 113°54'0 0.0
2016-Aug-28 17:32N 22°28' E 113°54'0 0.0
2016-Aug-28 16:32N 22°28' E 113°54'0 0.0
2016-Aug-28 15:32N 22°28' E 113°54'0 0.0
2016-Aug-28 14:26N 22°28' E 113°54'0 0.0
2016-Aug-28 13:32N 22°28' E 113°54'0 0.0
2016-Aug-28 12:32N 22°28' E 113°54'0 0.0
2016-Aug-28 11:32N 22°28' E 113°54'1 1.2
2016-Aug-28 10:33N 22°27' E 113°54'5 4.7
2016-Aug-28 09:31N 22°22' E 113°55'1010.6
2016-Aug-28 08:33N 22°19' E 114°05'24212.1
2016-Aug-27 12:32N 20°12' E 110°24'1111.4
2016-Aug-27 11:33N 20°09' E 110°13'10 0.2
2016-Aug-25 11:03N 20°09' E 110°02'612.6
2016-Aug-25 10:32N 20°10' E 110°08'1111.0
2016-Aug-25 09:33N 20°12' E 110°20'1210.4
2016-Aug-25 08:23N 20°14' E 110°32'23414.5
2016-Aug-24 16:17N 22°18' E 114°06'2 0.3
2016-Aug-24 08:34N 22°19' E 114°07'15 6.8
2016-Aug-24 06:21N 22°08' E 114°18'28614.9
2016-Aug-23 11:11N 24°14' E 118°57'1015.1
2016-Aug-23 10:33N 24°20' E 119°05'1515.2
2016-Aug-23 09:33N 24°28' E 119°19'1916.4
2016-Aug-23 08:23N 24°39' E 119°37'2117.4
2016-Aug-23 07:10N 24°51' E 119°56'  

Dump ship's entire track history